Time;durP1;ratioP1;P1;durP2;ratioP2;P2;SDS_P1;SDS_P2;PMS_P1;PMS_P2;Temp;Humidity;BMP_temperature;BMP_pressure;BME280_temperature;BME280_humidity;BME280_pressure;Samples;Min_cycle;Max_cycle;Signal;HPM_P1;HPM_P2
2021/10/28 00:12:25;;;;;;;;;;;;;;;13.76;85.12;100967.44;1720033;83;20297;-80
2021/10/28 00:14:54;;;;;;;;;;;;;;;13.71;85.24;100975.05;1719431;83;20563;-81
2021/10/28 00:17:37;;;;;;;;;;;;;;;13.76;85.37;100955.48;1723311;82;20179;-80
2021/10/28 00:19:50;;;;;;;;;;;;;;;13.71;85.53;100965.75;1715394;82;20283;-81
2021/10/28 00:22:16;;;;;;;;;;;;;;;13.64;86.10;100974.81;1721374;82;20187;-79
2021/10/28 00:24:41;;;;;;;;;;;;;;;13.71;85.74;100963.10;1695580;83;20153;-79
2021/10/28 00:27:09;;;;;;;;;;;;;;;13.70;85.77;100961.42;1722520;82;21127;-80
2021/10/28 00:29:38;;;;;;;;;;;;;;;13.59;86.44;100968.64;1721676;83;20488;-80
2021/10/28 00:32:04;;;;;;;;;;;;;;;13.58;86.51;100974.96;1719458;83;20639;-80
2021/10/28 00:34:31;;;;;;;;;;;;;;;13.67;86.32;100956.43;1718604;82;20194;-80
2021/10/28 00:37:04;;;;;;;;;;;;;;;13.63;86.43;100973.17;1719669;82;20258;-80
2021/10/28 00:39:30;;;;;;;;;;;;;;;13.64;86.35;100966.38;1721225;83;21242;-78
2021/10/28 00:41:57;;;;;;;;;;;;;;;13.69;86.15;100962.41;1717826;82;20212;-79
2021/10/28 00:44:23;;;;;;;;;;;;;;;13.68;86.36;100956.78;1718346;82;20158;-78
2021/10/28 00:46:51;;;;;;;;;;;;;;;13.77;85.94;100958.49;1716543;83;20256;-79
2021/10/28 00:49:20;;;;;;;;;;;;;;;13.85;85.63;100960.36;1719647;82;20145;-80
2021/10/28 00:51:49;;;;;;;;;;;;;;;13.75;86.12;100967.94;1720183;82;20851;-79
2021/10/28 00:54:17;;;;;;;;;;;;;;;13.74;86.10;100956.16;1720100;83;20194;-79
2021/10/28 00:56:46;;;;;;;;;;;;;;;13.74;86.21;100954.83;1721205;82;20151;-79
2021/10/28 00:59:11;;;;;;;;;;;;;;;13.74;86.25;100942.37;1721873;83;20176;-79
2021/10/28 01:01:39;;;;;;;;;;;;;;;13.69;86.67;100946.48;1705872;82;20318;-80
2021/10/28 01:04:05;;;;;;;;;;;;;;;13.76;86.33;100956.81;1717112;83;21961;-80
2021/10/28 01:06:34;;;;;;;;;;;;;;;13.75;86.52;100953.34;1719094;83;20154;-80
2021/10/28 01:09:03;;;;;;;;;;;;;;;13.74;86.44;100953.50;1734170;82;20131;-79
2021/10/28 01:11:32;;;;;;;;;;;;;;;13.74;86.23;100950.84;1728087;82;20206;-79
2021/10/28 01:13:59;;;;;;;;;;;;;;;13.77;86.30;100953.19;1705021;82;20181;-80
2021/10/28 01:16:27;;;;;;;;;;;;;;;13.77;86.30;100953.19;1730972;82;21067;-79
2021/10/28 01:18:55;;;;;;;;;;;;;;;13.81;86.13;100947.41;1726189;82;20214;-80
2021/10/28 01:21:21;;;;;;;;;;;;;;;13.76;86.30;100939.56;1728823;82;20612;-80
2021/10/28 01:23:49;;;;;;;;;;;;;;;13.72;86.51;100938.20;1727072;82;20154;-80
2021/10/28 01:26:16;;;;;;;;;;;;;;;13.70;86.66;100937.53;1725682;82;20147;-80
2021/10/28 01:28:59;;;;;;;;;;;;;;;13.68;86.79;100936.36;1727095;82;21027;-80
2021/10/28 01:31:27;;;;;;;;;;;;;;;13.65;87.05;100941.98;1728435;82;20202;-79
2021/10/28 01:33:54;;;;;;;;;;;;;;;13.72;86.82;100935.55;1699835;82;20589;-80
2021/10/28 01:36:22;;;;;;;;;;;;;;;13.74;86.56;100936.24;1701529;82;20599;-80
2021/10/28 01:38:47;;;;;;;;;;;;;;;13.83;86.25;100932.64;1725996;82;20166;-79
2021/10/28 01:41:15;;;;;;;;;;;;;;;13.88;85.77;100931.66;1725518;82;21070;-80
2021/10/28 01:43:43;;;;;;;;;;;;;;;13.76;86.32;100934.25;1722595;82;20589;-79
2021/10/28 01:46:14;;;;;;;;;;;;;;;13.74;86.54;100930.94;1726847;82;20148;-79
2021/10/28 01:48:41;;;;;;;;;;;;;;;13.81;86.29;100934.60;1727063;82;20127;-81
2021/10/28 01:51:09;;;;;;;;;;;;;;;13.81;86.24;100934.60;1725076;82;20570;-79
2021/10/28 01:53:40;;;;;;;;;;;;;;;13.85;85.84;100931.98;1723086;82;21147;-80
2021/10/28 01:56:06;;;;;;;;;;;;;;;13.89;85.62;100934.66;1728338;82;20936;-80
2021/10/28 01:58:33;;;;;;;;;;;;;;;13.80;85.93;100932.95;1696951;82;20131;-80
2021/10/28 02:01:02;;;;;;;;;;;;;;;13.64;86.69;100939.84;1726902;82;20200;-80
2021/10/28 02:03:30;;;;;;;;;;;;;;;13.65;86.36;100936.17;1706051;82;20195;-80
2021/10/28 02:05:56;;;;;;;;;;;;;;;13.57;86.91;100925.52;1724726;82;21124;-80
2021/10/28 02:08:26;;;;;;;;;;;;;;;13.60;86.76;100933.17;1717190;82;20134;-79
2021/10/28 02:10:55;;;;;;;;;;;;;;;13.69;86.45;100930.55;1713609;82;20485;-80
2021/10/28 02:13:24;;;;;;;;;;;;;;;13.74;86.11;100927.77;1709367;83;20541;-80
2021/10/28 02:15:51;;;;;;;;;;;;;;;13.65;86.44;100922.91;1708670;82;20631;-80
2021/10/28 02:18:20;;;;;;;;;;;;;;;13.79;86.00;100925.97;1689931;83;21126;-80
2021/10/28 02:20:48;;;;;;;;;;;;;;;13.68;86.40;100927.58;1715847;83;20949;-80
2021/10/28 02:23:15;;;;;;;;;;;;;;;13.53;87.11;100918.87;1710568;82;20131;-80
2021/10/28 02:25:40;;;;;;;;;;;;;;;13.59;86.67;100924.86;1707169;83;20130;-80
2021/10/28 02:28:12;;;;;;;;;;;;;;;13.50;87.35;100916.54;1705468;83;20155;-80
2021/10/28 02:30:38;;;;;;;;;;;;;;;13.51;87.22;100920.84;1707747;83;20203;-80
2021/10/28 02:33:04;;;;;;;;;;;;;;;13.47;87.29;100918.18;1711188;82;20210;-80
2021/10/28 02:35:31;;;;;;;;;;;;;;;13.45;87.39;100919.66;1710908;82;20178;-80
2021/10/28 02:37:59;;;;;;;;;;;;;;;13.53;87.00;100921.53;1713175;83;20218;-80
2021/10/28 02:40:28;;;;;;;;;;;;;;;13.50;87.00;100917.86;1708392;83;20195;-81
2021/10/28 02:42:54;;;;;;;;;;;;;;;13.67;86.43;100918.77;1716842;83;21135;-79
2021/10/28 02:45:20;;;;;;;;;;;;;;;13.75;86.03;100922.81;1716677;83;20211;-79
2021/10/28 02:47:47;;;;;;;;;;;;;;;13.78;85.74;100926.48;1716325;83;20198;-80
2021/10/28 02:50:13;;;;;;;;;;;;;;;13.73;85.73;100930.59;1714037;83;20334;-80
2021/10/28 02:52:38;;;;;;;;;;;;;;;13.82;85.73;100928.31;1710623;83;20187;-80
2021/10/28 02:55:08;;;;;;;;;;;;;;;13.72;85.87;100926.25;1707499;83;21152;-80
2021/10/28 02:57:38;;;;;;;;;;;;;;;13.65;86.18;100929.54;1715902;82;20163;-80
2021/10/28 03:00:10;;;;;;;;;;;;;;;13.57;86.46;100932.16;1708519;83;20228;-79
2021/10/28 03:02:37;;;;;;;;;;;;;;;13.77;85.77;100934.09;1714067;83;20178;-79
2021/10/28 03:05:06;;;;;;;;;;;;;;;13.81;85.35;100943.89;1690392;83;20184;-79
2021/10/28 03:07:33;;;;;;;;;;;;;;;13.72;85.65;100944.36;1721597;82;20274;-79
2021/10/28 03:10:01;;;;;;;;;;;;;;;13.79;85.52;100947.21;1697534;82;20335;-79
2021/10/28 03:12:27;;;;;;;;;;;;;;;13.82;85.44;100941.59;1726242;82;20178;-79
2021/10/28 03:14:56;;;;;;;;;;;;;;;13.73;85.69;100950.50;1723537;82;20205;-79
2021/10/28 03:28:05;;;;;;;;;;;;;;;13.91;84.73;100959.23;1726169;82;20174;-80
2021/10/28 03:30:32;;;;;;;;;;;;;;;13.93;84.58;100964.38;1725847;82;20175;-79
2021/10/28 03:33:00;;;;;;;;;;;;;;;13.80;85.14;100962.16;1729036;82;21097;-79
2021/10/28 03:35:25;;;;;;;;;;;;;;;13.76;85.40;100966.11;1727656;82;20278;-79
2021/10/28 03:37:54;;;;;;;;;;;;;;;13.87;84.86;100973.80;1729718;82;20201;-80
2021/10/28 03:57:20;;;;;;;;;;;;;;;13.78;85.45;100984.03;1699923;82;20207;-79
2021/10/28 03:59:45;;;;;;;;;;;;;;;13.75;85.54;100989.17;1699562;82;20134;-79
2021/10/28 04:02:38;;;;;;;;;;;;;;;13.78;85.41;100993.31;1695530;82;20130;-79
2021/10/28 04:31:27;;;;;;;;;;;;;;;13.79;85.27;101002.96;1724478;82;20206;-79
2021/10/28 04:33:55;;;;;;;;;;;;;;;13.77;85.36;101007.60;1724616;82;20312;-78
2021/10/28 04:36:28;;;;;;;;;;;;;;;13.75;85.45;101011.74;1724910;82;20261;-79
2021/10/28 04:38:55;;;;;;;;;;;;;;;13.64;85.95;101002.20;1727479;82;20628;-79
2021/10/28 04:41:20;;;;;;;;;;;;;;;13.73;86.01;101004.91;1724917;82;20201;-80
2021/10/28 04:43:46;;;;;;;;;;;;;;;13.65;86.01;101007.84;1722663;82;20198;-78
2021/10/28 04:46:14;;;;;;;;;;;;;;;13.64;86.11;101006.19;1721963;82;20205;-79
2021/10/28 04:48:42;;;;;;;;;;;;;;;13.59;86.18;101011.11;1723670;82;20272;-79
2021/10/28 04:51:09;;;;;;;;;;;;;;;13.69;85.73;101010.18;1725215;82;21056;-78
2021/10/28 04:53:37;;;;;;;;;;;;;;;13.67;85.91;101012.98;1727295;82;20206;-81
2021/10/28 04:56:08;;;;;;;;;;;;;;;13.81;85.38;101007.61;1699096;82;20578;-84
2021/10/28 04:58:37;;;;;;;;;;;;;;;13.72;85.49;101010.72;1727216;82;20288;-83
2021/10/28 05:01:05;;;;;;;;;;;;;;;13.65;85.87;101015.80;1724884;82;20647;-80
2021/10/28 05:03:31;;;;;;;;;;;;;;;13.75;85.60;101017.52;1730341;82;21157;-80
2021/10/28 05:05:58;;;;;;;;;;;;;;;13.62;86.07;101016.11;1726197;82;20732;-79
2021/10/28 05:08:24;;;;;;;;;;;;;;;13.81;85.34;101016.91;1726102;82;20239;-79
2021/10/28 05:10:50;;;;;;;;;;;;;;;13.72;85.48;101017.36;1728277;82;20134;-80
2021/10/28 05:13:15;;;;;;;;;;;;;;;13.63;86.04;101024.92;1699646;82;20183;-78
2021/10/28 05:15:48;;;;;;;;;;;;;;;13.56;86.19;101027.34;1724319;82;21058;-81
2021/10/28 05:18:16;;;;;;;;;;;;;;;13.37;87.11;101030.19;1724477;82;20146;-82
2021/10/28 05:20:42;;;;;;;;;;;;;;;13.34;87.49;101025.19;1724801;82;20205;-82
2021/10/28 05:23:10;;;;;;;;;;;;;;;13.53;86.67;101027.68;1725294;82;20215;-83
2021/10/28 05:25:39;;;;;;;;;;;;;;;13.52;86.57;101026.00;1701005;82;20210;-83
2021/10/28 05:28:09;;;;;;;;;;;;;;;13.45;86.79;101027.59;1699012;82;20174;-82
2021/10/28 05:30:34;;;;;;;;;;;;;;;13.48;86.55;101019.33;1724125;82;20130;-82
2021/10/28 05:33:06;;;;;;;;;;;;;;;13.44;86.89;101029.92;1726361;82;20296;-82
2021/10/28 05:35:32;;;;;;;;;;;;;;;13.50;86.86;101033.30;1726883;81;20210;-83
2021/10/28 05:37:57;;;;;;;;;;;;;;;13.67;86.27;101033.40;1729912;82;20150;-82
2021/10/28 05:40:23;;;;;;;;;;;;;;;13.75;85.72;101036.11;1727877;82;21062;-83
2021/10/28 05:42:52;;;;;;;;;;;;;;;13.72;85.63;101041.72;1727747;82;20170;-82
2021/10/28 05:45:20;;;;;;;;;;;;;;;13.72;85.68;101035.09;1700630;82;20159;-82
2021/10/28 05:47:48;;;;;;;;;;;;;;;13.76;85.47;101033.80;1724885;82;20323;-80
2021/10/28 05:50:17;;;;;;;;;;;;;;;13.81;85.19;101038.14;1729621;82;21112;-82
2021/10/28 05:52:44;;;;;;;;;;;;;;;13.70;85.49;101045.03;1705705;82;20929;-82
2021/10/28 05:55:11;;;;;;;;;;;;;;;13.62;85.73;101041.83;1700707;82;20187;-82
2021/10/28 05:57:37;;;;;;;;;;;;;;;13.67;85.59;101051.48;1698309;81;20137;-84
2021/10/28 06:00:07;;;;;;;;;;;;;;;13.64;85.55;101048.66;1724950;82;20218;-84
2021/10/28 06:02:33;;;;;;;;;;;;;;;13.51;86.34;101058.82;1728305;82;20198;-83
2021/10/28 06:05:01;;;;;;;;;;;;;;;13.59;85.81;101056.73;1729076;82;21042;-83
2021/10/28 06:07:28;;;;;;;;;;;;;;;13.51;86.39;101066.78;1725289;82;20612;-83
2021/10/28 06:09:54;;;;;;;;;;;;;;;13.49;86.53;101064.78;1705448;82;20191;-83
2021/10/28 06:12:20;;;;;;;;;;;;;;;13.42;86.74;101069.02;1699598;82;20142;-83
2021/10/28 06:14:45;;;;;;;;;;;;;;;13.38;86.96;101070.33;1707954;82;20322;-83
2021/10/28 06:17:18;;;;;;;;;;;;;;;13.29;87.36;101073.36;1732740;82;20988;-84
2021/10/28 06:19:42;;;;;;;;;;;;;;;13.42;86.90;101070.34;1730837;82;20287;-83
2021/10/28 06:22:11;;;;;;;;;;;;;;;13.43;87.05;101069.38;1734502;82;20354;-83
2021/10/28 06:24:40;;;;;;;;;;;;;;;13.59;86.32;101063.36;1734994;82;20524;-84
2021/10/28 06:27:05;;;;;;;;;;;;;;;13.41;86.84;101066.05;1733464;82;20613;-84
2021/10/28 06:29:33;;;;;;;;;;;;;;;13.39;87.11;101073.30;1732470;81;21157;-83
2021/10/28 06:32:01;;;;;;;;;;;;;;;13.39;87.17;101078.61;1730908;81;20114;-83
2021/10/28 06:34:32;;;;;;;;;;;;;;;13.22;87.91;101073.13;1731595;82;20347;-84
2021/10/28 06:37:00;;;;;;;;;;;;;;;13.23;87.74;101080.09;1730671;81;20210;-83
2021/10/28 06:39:23;;;;;;;;;;;;;;;13.33;87.61;101079.19;1704434;82;20226;-83
2021/10/28 06:41:49;;;;;;;;;;;;;;;13.33;87.43;101081.84;1732860;82;20162;-83
2021/10/28 06:44:14;;;;;;;;;;;;;;;13.42;87.24;101079.16;1730699;82;20479;-84
2021/10/28 06:46:42;;;;;;;;;;;;;;;13.50;86.66;101082.38;1733907;81;20176;-82
2021/10/28 06:49:07;;;;;;;;;;;;;;;13.51;86.63;101086.69;1733787;82;20130;-83
2021/10/28 06:51:38;;;;;;;;;;;;;;;13.67;86.14;101079.34;1733937;82;20158;-83
2021/10/28 07:04:40;;;;;;;;;;;;;;;14.06;83.96;101097.59;1729396;82;20157;-84
2021/10/28 07:07:06;;;;;;;;;;;;;;;14.13;83.76;101085.83;1730027;82;21138;-85
2021/10/28 07:09:41;;;;;;;;;;;;;;;14.15;83.80;101101.11;1727999;82;20255;-83
2021/10/28 07:12:11;;;;;;;;;;;;;;;14.11;83.82;101095.79;1713794;83;20877;-84
2021/10/28 07:14:30;;;;;;;;;;;;;;;14.12;83.54;101098.77;1720069;82;20179;-84
2021/10/28 07:27:32;;;;;;;;;;;;;;;14.13;83.68;101089.81;1721006;82;20579;-81
2021/10/28 07:30:12;;;;;;;;;;;;;;;14.18;83.24;101086.19;1722552;82;20315;-80
2021/10/28 07:57:25;;;;;;;;;;;;;;;14.40;81.84;101097.27;1720277;83;20313;-79
2021/10/28 08:18:27;;;;;;;;;;;;;;;14.32;81.61;101100.21;1684097;84;20113;-78
2021/10/28 08:23:37;;;;;;;;;;;;;;;14.51;81.15;101098.32;1669216;84;20594;-78
2021/10/28 08:31:18;;;;;;;;;;;;;;;14.20;81.50;101104.16;1686997;83;20174;-82
2021/10/28 08:33:50;;;;;;;;;;;;;;;14.41;80.91;101105.59;1687746;83;20189;-82
2021/10/28 08:36:25;;;;;;;;;;;;;;;14.39;80.63;101103.56;1684060;83;20213;-82
2021/10/28 08:38:47;;;;;;;;;;;;;;;14.39;80.70;101099.58;1684042;84;20185;-82
2021/10/28 08:41:13;;;;;;;;;;;;;;;14.34;81.00;101103.56;1684187;83;20220;-82
2021/10/28 08:43:42;;;;;;;;;;;;;;;14.36;80.94;101101.57;1684709;83;20217;-82
2021/10/28 08:46:12;;;;;;;;;;;;;;;14.34;80.77;101105.37;1685707;84;20548;-83
2021/10/28 08:48:41;;;;;;;;;;;;;;;14.49;80.71;101106.45;1686156;82;20524;-81
2021/10/28 08:51:14;;;;;;;;;;;;;;;14.28;80.85;101100.20;1687468;83;20155;-81
2021/10/28 08:56:29;;;;;;;;;;;;;;;14.53;80.17;101091.04;1683470;84;20213;-81
2021/10/28 09:24:09;;;;;;;;;;;;;;;15.02;77.60;101093.92;1726685;82;20170;-82
2021/10/28 09:35:17;;;;;;;;;;;;;;;14.93;76.74;101096.22;1730165;81;20141;-81
2021/10/28 09:43:47;;;;;;;;;;;;;;;15.00;76.75;101106.53;1733622;82;20154;-82
2021/10/28 09:51:55;;;;;;;;;;;;;;;15.06;76.07;101090.43;1711085;82;20188;-83
2021/10/28 09:59:36;;;;;;;;;;;;;;;14.96;75.78;101091.05;1729220;82;20139;-81
2021/10/28 10:02:10;;;;;;;;;;;;;;;15.07;75.89;101095.59;1721674;82;20589;-81
2021/10/28 10:04:33;;;;;;;;;;;;;;;15.18;75.59;101094.93;1728745;82;20114;-82
2021/10/28 10:06:59;;;;;;;;;;;;;;;15.16;75.43;101094.27;1730684;82;20213;-83
2021/10/28 10:09:35;;;;;;;;;;;;;;;15.21;75.15;101095.94;1698925;82;20256;-82
2021/10/28 10:12:03;;;;;;;;;;;;;;;15.32;75.12;101103.62;1726392;82;21815;-82
2021/10/28 10:14:32;;;;;;;;;;;;;;;15.41;74.28;101106.64;1697840;82;20834;-81
2021/10/28 10:16:59;;;;;;;;;;;;;;;15.37;74.11;101105.80;1695815;82;20224;-82
2021/10/28 10:19:36;;;;;;;;;;;;;;;15.03;74.66;101106.20;1724424;82;37913;-82
2021/10/28 10:22:17;;;;;;;;;;;;;;;15.29;74.46;101105.28;1696178;82;20183;-82
2021/10/28 10:24:45;;;;;;;;;;;;;;;15.34;74.36;101108.28;1695101;82;21111;-81
2021/10/28 12:19:58;;;;;;;;;;;;;;;15.72;67.58;101068.72;1724385;81;20154;-81
2021/10/28 12:46:00;;;;;;;;;;;;;;;15.40;68.85;101053.05;1728940;82;20549;-81
2021/10/28 12:51:02;;;;;;;;;;;;;;;15.58;68.12;101040.92;1699212;82;20182;-81
2021/10/28 12:53:48;;;;;;;;;;;;;;;15.53;68.19;101041.91;1727930;82;20142;-82
2021/10/28 13:04:47;;;;;;;;;;;;;;;15.77;67.60;101045.09;1723389;82;20216;-82
2021/10/28 13:28:12;;;;;;;;;;;;;;;16.25;66.77;101041.17;1720715;82;20222;-80
2021/10/28 15:28:03;;;;;;;;;;;;;;;19.01;52.95;101014.70;1721801;82;20162;-79
2021/10/28 15:36:00;;;;;;;;;;;;;;;18.12;55.81;101000.98;1723604;83;20160;-78
2021/10/28 15:38:50;;;;;;;;;;;;;;;17.71;56.97;101002.71;1719749;83;20205;-80
2021/10/28 15:53:11;;;;;;;;;;;;;;;16.50;61.24;100999.75;1676997;83;20150;-82
2021/10/28 16:21:47;;;;;;;;;;;;;;;15.35;67.32;100998.17;1718851;82;20179;-82
2021/10/28 16:23:21;;;;;;;;;;;;;;;14.57;71.38;101001.17;1728925;82;20587;-83
2021/10/28 16:25:48;;;;;;;;;;;;;;;14.52;71.58;101000.33;1722774;82;20155;-82
2021/10/28 16:28:16;;;;;;;;;;;;;;;14.41;72.24;101005.94;1723759;82;20203;-82
2021/10/28 16:30:47;;;;;;;;;;;;;;;14.31;72.50;101004.23;1719913;82;20203;-81
2021/10/28 16:33:14;;;;;;;;;;;;;;;14.30;72.35;101003.07;1728852;82;20238;-81
2021/10/28 16:35:43;;;;;;;;;;;;;;;14.26;72.43;100999.91;1725539;82;20214;-81
2021/10/28 16:38:11;;;;;;;;;;;;;;;14.26;72.43;100995.92;1724897;82;20246;-82
2021/10/28 16:40:38;;;;;;;;;;;;;;;14.15;73.49;100994.86;1730421;82;20226;-82
2021/10/28 16:43:04;;;;;;;;;;;;;;;14.04;74.12;100995.14;1730630;81;20194;-80
2021/10/28 16:45:34;;;;;;;;;;;;;;;14.04;73.76;100995.96;1726865;82;21095;-81
2021/10/28 16:48:04;;;;;;;;;;;;;;;13.96;74.40;100995.92;1730893;82;20371;-81
2021/10/28 16:50:32;;;;;;;;;;;;;;;13.91;74.53;100998.23;1726809;82;20173;-83
2021/10/28 16:52:58;;;;;;;;;;;;;;;13.83;75.06;100993.70;1729979;82;20549;-81
2021/10/28 16:55:24;;;;;;;;;;;;;;;13.81;74.94;100999.64;1725990;82;20470;-81
2021/10/28 16:57:53;;;;;;;;;;;;;;;13.79;75.09;101001.63;1726434;82;21297;-80
2021/10/28 17:00:20;;;;;;;;;;;;;;;13.74;75.37;101003.94;1721716;82;20692;-81
2021/10/28 17:02:48;;;;;;;;;;;;;;;13.72;75.33;101007.22;1726866;82;20179;-81
2021/10/28 17:05:16;;;;;;;;;;;;;;;13.73;75.42;101008.89;1724895;82;20211;-81
2021/10/28 17:07:42;;;;;;;;;;;;;;;13.67;75.74;101005.02;1727178;82;20585;-81
2021/10/28 17:10:10;;;;;;;;;;;;;;;13.67;75.66;101001.55;1702123;82;20923;-80
2021/10/28 17:12:36;;;;;;;;;;;;;;;13.68;75.49;101000.57;1725534;82;20327;-81
2021/10/28 17:15:05;;;;;;;;;;;;;;;13.62;75.93;101000.19;1711591;83;20926;-81
2021/10/28 17:17:33;;;;;;;;;;;;;;;13.51;76.82;101011.05;1690861;83;20782;-81
2021/10/28 17:20:05;;;;;;;;;;;;;;;13.46;76.92;101003.56;1707971;83;20512;-82
2021/10/28 17:22:27;;;;;;;;;;;;;;;13.47;77.14;101013.70;1711674;83;20140;-82
2021/10/28 17:24:58;;;;;;;;;;;;;;;13.47;76.98;101007.06;1712521;83;20143;-82
2021/10/28 17:27:25;;;;;;;;;;;;;;;13.47;77.06;101009.72;1713165;82;20131;-82
2021/10/28 17:29:51;;;;;;;;;;;;;;;13.46;77.59;101012.02;1689813;83;20162;-82
2021/10/28 17:32:21;;;;;;;;;;;;;;;13.45;76.99;101003.71;1712692;83;20186;-82
2021/10/28 17:34:48;;;;;;;;;;;;;;;13.41;77.62;101002.38;1715672;83;20124;-82
2021/10/28 17:37:15;;;;;;;;;;;;;;;13.44;77.36;101004.72;1713144;83;20472;-82
2021/10/28 17:39:44;;;;;;;;;;;;;;;13.44;77.22;101003.39;1713123;83;20142;-82
2021/10/28 17:42:10;;;;;;;;;;;;;;;13.42;77.43;101004.02;1713754;83;20179;-81
2021/10/28 17:44:42;;;;;;;;;;;;;;;13.35;77.98;101008.29;1714815;83;20642;-83
2021/10/28 17:47:04;;;;;;;;;;;;;;;13.29;78.42;101005.21;1710972;83;20190;-81
2021/10/28 17:49:29;;;;;;;;;;;;;;;13.23;79.09;101002.34;1717974;82;20240;-81
2021/10/28 17:51:55;;;;;;;;;;;;;;;13.22;79.38;101007.30;1691148;83;20281;-81
2021/10/28 17:54:22;;;;;;;;;;;;;;;13.22;79.61;101008.16;1711919;83;20127;-81
2021/10/28 17:56:48;;;;;;;;;;;;;;;13.25;79.52;101009.17;1705494;82;20241;-79
2021/10/28 17:59:18;;;;;;;;;;;;;;;13.27;79.41;101012.50;1706139;83;21917;-79
2021/10/28 18:01:49;;;;;;;;;;;;;;;13.29;79.34;101017.15;1692994;83;20151;-80
2021/10/28 18:04:15;;;;;;;;;;;;;;;13.32;78.85;101013.37;1707875;83;20315;-81
2021/10/28 18:06:40;;;;;;;;;;;;;;;13.35;78.61;101006.97;1690271;83;20615;-79
2021/10/28 18:09:07;;;;;;;;;;;;;;;13.32;78.87;101001.43;1721343;83;20178;-80
2021/10/28 18:11:33;;;;;;;;;;;;;;;13.30;78.87;101002.09;1693829;83;21010;-80
2021/10/28 18:14:10;;;;;;;;;;;;;;;13.31;78.75;100997.09;1720925;82;20171;-80
2021/10/28 18:16:35;;;;;;;;;;;;;;;13.28;78.83;101000.91;1722796;82;20650;-84
2021/10/28 18:19:01;;;;;;;;;;;;;;;13.28;78.79;101000.06;1720314;82;20651;-80
2021/10/28 18:21:27;;;;;;;;;;;;;;;13.25;78.88;100998.56;1721450;82;20226;-80
2021/10/28 18:23:54;;;;;;;;;;;;;;;13.21;79.32;100995.05;1722412;83;21166;-80
2021/10/28 18:26:24;;;;;;;;;;;;;;;13.19;78.98;101003.15;1723611;82;20162;-80
2021/10/28 18:28:51;;;;;;;;;;;;;;;13.20;78.92;100998.17;1719059;82;21086;-81
2021/10/28 18:31:20;;;;;;;;;;;;;;;13.17;79.19;101002.95;1716495;82;20564;-80
2021/10/28 18:33:48;;;;;;;;;;;;;;;13.15;79.04;100996.47;1720045;83;20213;-79
2021/10/28 18:36:13;;;;;;;;;;;;;;;13.11;79.05;101000.41;1719860;82;20203;-80
2021/10/28 18:38:44;;;;;;;;;;;;;;;13.02;79.46;100997.33;1703065;83;20190;-80
2021/10/28 18:41:08;;;;;;;;;;;;;;;13.03;79.36;100996.36;1718871;82;20149;-80
2021/10/28 18:43:33;;;;;;;;;;;;;;;12.99;79.40;100993.66;1720143;82;20622;-79
2021/10/28 18:46:00;;;;;;;;;;;;;;;12.96;79.38;100989.98;1720355;83;20147;-79
2021/10/28 18:48:25;;;;;;;;;;;;;;;12.92;79.61;100988.96;1719694;82;21140;-78
2021/10/28 18:50:53;;;;;;;;;;;;;;;12.90;79.65;100990.94;1704512;83;21176;-79
2021/10/28 18:53:20;;;;;;;;;;;;;;;12.85;80.10;100990.56;1720241;82;20169;-78
2021/10/28 18:55:46;;;;;;;;;;;;;;;12.81;80.33;100986.53;1722805;82;20528;-79
2021/10/28 18:58:14;;;;;;;;;;;;;;;12.70;80.82;100988.09;1721740;82;20230;-77
2021/10/28 19:00:41;;;;;;;;;;;;;;;12.66;81.18;100984.05;1722170;82;21158;-78
2021/10/28 19:03:09;;;;;;;;;;;;;;;12.59;81.30;100981.68;1720885;82;20508;-77
2021/10/28 19:05:34;;;;;;;;;;;;;;;12.57;81.34;100983.97;1702842;83;20178;-78
2021/10/28 19:08:04;;;;;;;;;;;;;;;12.63;80.87;100983.03;1722346;82;20175;-80
2021/10/28 19:10:29;;;;;;;;;;;;;;;12.52;81.52;100982.27;1700769;83;20207;-81
2021/10/28 19:12:59;;;;;;;;;;;;;;;12.56;81.00;100983.63;1717918;82;21142;-82
2021/10/28 19:15:24;;;;;;;;;;;;;;;12.52;81.28;100977.44;1724407;82;20206;-81
2021/10/28 19:17:52;;;;;;;;;;;;;;;12.47;81.72;100979.21;1723693;82;20943;-82
2021/10/28 19:20:19;;;;;;;;;;;;;;;12.42;81.75;100977.50;1718967;82;20130;-78
2021/10/28 19:22:46;;;;;;;;;;;;;;;12.41;81.86;100977.16;1729214;82;20259;-78
2021/10/28 19:25:11;;;;;;;;;;;;;;;12.45;81.64;100975.89;1704538;82;21169;-78
2021/10/28 19:27:37;;;;;;;;;;;;;;;12.38;82.02;100973.00;1727570;82;20630;-79
2021/10/28 19:30:25;;;;;;;;;;;;;;;12.34;82.39;100972.13;1726665;82;20221;-81
2021/10/28 19:32:42;;;;;;;;;;;;;;;12.37;81.94;100967.86;1696291;82;20186;-80
2021/10/28 19:35:13;;;;;;;;;;;;;;;12.35;82.54;100971.12;1727777;82;20187;-80
2021/10/28 19:37:49;;;;;;;;;;;;;;;12.30;82.64;100971.56;1724498;82;20135;-79
2021/10/28 19:45:07;;;;;;;;;;;;;;;12.29;82.46;100967.73;1679376;82;20205;-79
2021/10/28 19:45:30;;;;;;;;;;;;;;;12.27;82.74;100967.06;1720496;82;20228;-80
2021/10/28 19:47:50;;;;;;;;;;;;;;;12.25;82.77;100965.88;1724925;82;20189;-79
2021/10/28 19:50:16;;;;;;;;;;;;;;;12.16;83.43;100960.97;1725624;82;21079;-79
2021/10/28 19:52:44;;;;;;;;;;;;;;;12.13;83.82;100961.25;1726763;82;20813;-79
2021/10/28 19:55:17;;;;;;;;;;;;;;;12.18;83.78;100954.20;1723542;82;20269;-85
2021/10/28 19:57:49;;;;;;;;;;;;;;;12.20;83.25;100962.34;1729914;82;20158;-84
2021/10/28 20:08:18;;;;;;;;;;;;;;;12.21;82.57;100965.35;1640693;85;20143;-83
2021/10/28 20:21:07;;;;;;;;;;;;;;;11.98;83.13;100959.59;1733414;82;20368;-81
2021/10/28 20:23:35;;;;;;;;;;;;;;;11.93;83.25;100967.62;1731593;81;20195;-83
2021/10/28 20:26:02;;;;;;;;;;;;;;;11.96;82.87;100963.36;1733467;82;20130;-82
2021/10/28 20:28:29;;;;;;;;;;;;;;;11.94;82.92;100962.68;1731534;82;20996;-80
2021/10/28 20:31:00;;;;;;;;;;;;;;;11.77;83.09;100957.11;1730631;82;20341;-81
2021/10/28 20:33:30;;;;;;;;;;;;;;;11.81;83.11;100966.45;1735142;82;20177;-81
2021/10/28 20:38:37;;;;;;;;;;;;;;;11.68;83.67;100971.20;1733199;81;20213;-85
2021/10/28 20:41:04;;;;;;;;;;;;;;;11.64;83.83;100965.87;1703632;82;20194;-81
2021/10/28 20:43:33;;;;;;;;;;;;;;;11.63;83.78;100960.23;1729929;81;20197;-82
2021/10/28 20:46:00;;;;;;;;;;;;;;;11.63;83.63;100965.02;1729648;82;20174;-82
2021/10/28 20:48:31;;;;;;;;;;;;;;;11.60;83.45;100955.22;1728666;82;21054;-79
2021/10/28 20:50:58;;;;;;;;;;;;;;;11.60;83.23;100955.22;1707476;82;20123;-82
2021/10/28 20:53:24;;;;;;;;;;;;;;;11.59;83.05;100957.05;1703133;82;21178;-81
2021/10/28 20:55:50;;;;;;;;;;;;;;;11.46;83.76;100960.47;1731743;81;20906;-80
2021/10/28 20:58:17;;;;;;;;;;;;;;;11.43;83.42;100954.97;1730640;81;20564;-81
2021/10/28 21:00:43;;;;;;;;;;;;;;;11.42;83.78;100958.61;1731636;81;20369;-79
2021/10/28 21:03:10;;;;;;;;;;;;;;;11.33;84.14;100955.48;1728806;82;20165;-78
2021/10/28 21:05:37;;;;;;;;;;;;;;;11.24;84.56;100952.36;1729718;82;21157;-82
2021/10/28 21:08:03;;;;;;;;;;;;;;;11.25;84.25;100944.79;1731351;82;20154;-77
2021/10/28 21:10:30;;;;;;;;;;;;;;;11.28;83.90;100943.19;1729370;82;20130;-80
2021/10/28 21:12:57;;;;;;;;;;;;;;;11.30;83.70;100943.87;1733638;81;20171;-81
2021/10/28 21:15:23;;;;;;;;;;;;;;;11.27;83.67;100937.05;1684388;82;20224;-81
2021/10/28 21:17:54;;;;;;;;;;;;;;;11.24;83.70;100943.11;1680359;82;21296;-81
2021/10/28 21:20:24;;;;;;;;;;;;;;;11.27;83.50;100938.86;1706426;82;20143;-81
2021/10/28 21:22:49;;;;;;;;;;;;;;;11.27;83.67;100937.55;1714251;82;20217;-81
2021/10/28 21:25:16;;;;;;;;;;;;;;;11.19;83.91;100937.42;1708697;82;20587;-82
2021/10/28 21:27:44;;;;;;;;;;;;;;;11.22;83.57;100938.46;1704766;82;20189;-83
2021/10/28 21:30:11;;;;;;;;;;;;;;;11.16;83.56;100934.56;1708475;82;21959;-81
2021/10/28 21:32:37;;;;;;;;;;;;;;;11.17;83.54;100930.09;1682321;82;20240;-83
2021/10/28 21:35:04;;;;;;;;;;;;;;;11.25;83.00;100933.72;1713030;82;20273;-83
2021/10/28 21:37:30;;;;;;;;;;;;;;;11.10;83.72;100935.95;1679327;82;20233;-83
2021/10/28 21:39:56;;;;;;;;;;;;;;;11.08;83.68;100927.83;1707842;82;20225;-83
2021/10/28 21:42:22;;;;;;;;;;;;;;;11.07;83.37;100928.30;1703994;82;21092;-82